Time;durP1;ratioP1;P1;durP2;ratioP2;P2;SDS_P1;SDS_P2;PMS_P1;PMS_P2;Temp;Humidity;BMP_temperature;BMP_pressure;BME280_temperature;BME280_humidity;BME280_pressure;Samples;Min_cycle;Max_cycle;Signal;HPM_P1;HPM_P2
2023/06/01 00:01:41;;;;;;;2.03;1.92;;;14.80;98.50;;;;;;4793781;29;20199;-76
2023/06/01 00:04:07;;;;;;;2.15;2.05;;;14.80;98.50;;;;;;4804160;29;20199;-76
2023/06/01 00:06:34;;;;;;;2.63;2.45;;;14.70;98.50;;;;;;4801329;29;20616;-75
2023/06/01 00:09:06;;;;;;;2.17;2.08;;;14.70;98.50;;;;;;4794555;29;20190;-75
2023/06/01 00:11:32;;;;;;;2.40;2.30;;;14.70;98.50;;;;;;4799449;29;20180;-75
2023/06/01 00:13:57;;;;;;;2.25;2.10;;;14.80;98.50;;;;;;4803353;29;20189;-74
2023/06/01 00:16:23;;;;;;;1.70;1.70;;;14.80;98.50;;;;;;4801501;29;20224;-76
2023/06/01 00:18:52;;;;;;;2.63;2.47;;;14.80;98.50;;;;;;4802143;29;20184;-76
2023/06/01 00:21:18;;;;;;;5.65;2.05;;;14.80;98.50;;;;;;4804172;29;20184;-76
2023/06/01 00:23:44;;;;;;;2.17;1.65;;;14.70;98.50;;;;;;4803746;29;20312;-74
2023/06/01 00:26:10;;;;;;;2.47;1.75;;;14.70;98.50;;;;;;4807686;29;20688;-75
2023/06/01 00:28:36;;;;;;;1.90;1.80;;;14.70;98.50;;;;;;4797231;29;20205;-75
2023/06/01 00:31:02;;;;;;;2.08;1.98;;;14.70;98.50;;;;;;4798441;29;20181;-76
2023/06/01 00:33:27;;;;;;;2.85;2.22;;;14.70;98.50;;;;;;4808530;29;20189;-75
2023/06/01 00:35:53;;;;;;;2.15;2.05;;;14.70;98.50;;;;;;4805135;29;20593;-76
2023/06/01 00:38:19;;;;;;;2.28;2.17;;;14.70;98.50;;;;;;4800762;29;20192;-76
2023/06/01 00:40:45;;;;;;;2.72;1.98;;;14.60;98.50;;;;;;4799769;29;20220;-75
2023/06/01 00:43:10;;;;;;;1.88;1.88;;;14.60;98.50;;;;;;4807139;29;20204;-75
2023/06/01 00:45:39;;;;;;;1.80;1.77;;;14.50;98.50;;;;;;4798847;29;20302;-75
2023/06/01 00:48:05;;;;;;;2.95;2.25;;;14.40;98.50;;;;;;4800602;29;20261;-76
2023/06/01 00:50:31;;;;;;;4.28;2.30;;;14.30;98.50;;;;;;4797808;29;20191;-75
2023/06/01 00:53:00;;;;;;;2.63;2.53;;;14.30;98.50;;;;;;4796835;29;20185;-75
2023/06/01 00:55:27;;;;;;;1.83;1.73;;;14.30;98.50;;;;;;4803673;29;20184;-75
2023/06/01 00:57:54;;;;;;;1.95;1.85;;;14.30;98.50;;;;;;4795244;29;20690;-75
2023/06/01 01:00:20;;;;;;;2.22;2.13;;;14.30;98.50;;;;;;4806131;29;20598;-74
2023/06/01 01:02:48;;;;;;;2.35;2.25;;;14.20;98.50;;;;;;4802450;29;20191;-74
2023/06/01 01:05:15;;;;;;;2.38;2.28;;;14.20;98.50;;;;;;4811168;29;20262;-74
2023/06/01 01:07:41;;;;;;;1.88;1.88;;;14.20;98.50;;;;;;4801160;29;20200;-74
2023/06/01 01:10:21;;;;;;;2.58;2.40;;;14.10;98.50;;;;;;4817240;29;20179;-75
2023/06/01 01:12:53;;;;;;;1.98;1.88;;;14.20;98.50;;;;;;4801084;29;20249;-75
2023/06/01 01:15:30;;;;;;;2.30;2.10;;;14.10;98.50;;;;;;4813373;29;20224;-74
2023/06/01 01:18:17;;;;;;;1.83;1.75;;;14.10;98.50;;;;;;4806647;29;20192;-75
2023/06/01 01:20:44;;;;;;;2.88;1.80;;;14.10;98.50;;;;;;4801077;29;20188;-74
2023/06/01 01:23:45;;;;;;;2.03;1.92;;;14.10;98.50;;;;;;4797810;29;20183;-74
2023/06/01 01:26:35;;;;;;;1.55;1.45;;;14.00;98.50;;;;;;4800518;29;20252;-75
2023/06/01 01:29:06;;;;;;;2.38;2.17;;;14.00;98.50;;;;;;4801824;29;20784;-75
2023/06/01 01:31:34;;;;;;;2.03;1.92;;;13.90;98.50;;;;;;4794568;29;20192;-75
2023/06/01 01:34:01;;;;;;;2.28;2.08;;;13.80;98.50;;;;;;4803772;29;20220;-75
2023/06/01 01:36:28;;;;;;;2.17;2.08;;;13.90;98.50;;;;;;4798168;29;20211;-75
2023/06/01 01:38:54;;;;;;;4.00;2.42;;;13.80;98.50;;;;;;4798380;29;20689;-74
2023/06/01 01:41:21;;;;;;;2.05;1.95;;;13.70;98.50;;;;;;4802740;29;20197;-75
2023/06/01 01:43:48;;;;;;;4.13;2.75;;;13.60;98.50;;;;;;4797611;29;20695;-75
2023/06/01 01:46:26;;;;;;;2.97;2.53;;;13.60;98.50;;;;;;4799248;29;20213;-75
2023/06/01 01:49:01;;;;;;;3.33;2.70;;;13.50;98.50;;;;;;4805177;29;20666;-74
2023/06/01 01:51:47;;;;;;;4.15;3.45;;;13.50;98.50;;;;;;4800752;29;20590;-75
2023/06/01 01:54:14;;;;;;;3.85;2.63;;;13.60;98.50;;;;;;4805426;29;20579;-74
2023/06/01 01:56:40;;;;;;;3.80;3.28;;;13.60;98.50;;;;;;4803070;29;20192;-74
2023/06/01 01:59:06;;;;;;;7.93;3.17;;;13.70;98.50;;;;;;4804136;29;20184;-74
2023/06/01 02:01:33;;;;;;;9.88;3.90;;;13.80;98.50;;;;;;4801518;29;20709;-75
2023/06/01 02:04:00;;;;;;;8.02;3.22;;;13.80;98.50;;;;;;4803681;29;20173;-75
2023/06/01 02:06:26;;;;;;;3.38;3.08;;;13.80;98.50;;;;;;4801258;29;20273;-75
2023/06/01 02:08:52;;;;;;;5.63;3.05;;;13.90;98.50;;;;;;4795782;29;20201;-75
2023/06/01 02:11:17;;;;;;;5.38;3.05;;;13.90;98.50;;;;;;4800601;29;20671;-75
2023/06/01 02:13:43;;;;;;;3.92;3.55;;;13.90;98.50;;;;;;4801857;29;20242;-75
2023/06/01 02:16:09;;;;;;;6.78;3.30;;;13.80;98.50;;;;;;4797405;29;20193;-75
2023/06/01 02:18:38;;;;;;;3.38;3.08;;;13.80;98.50;;;;;;4799139;29;20181;-75
2023/06/01 02:21:05;;;;;;;3.15;2.95;;;13.80;98.50;;;;;;4804209;29;20282;-76
2023/06/01 02:23:30;;;;;;;3.38;3.10;;;13.80;98.50;;;;;;4804754;29;20196;-75
2023/06/01 02:25:56;;;;;;;5.00;3.40;;;13.90;98.50;;;;;;4800576;29;20253;-75
2023/06/01 02:28:22;;;;;;;3.63;3.33;;;13.90;98.50;;;;;;4797871;29;20253;-74
2023/06/01 02:30:47;;;;;;;7.07;4.15;;;13.90;98.50;;;;;;4802879;29;20271;-74
2023/06/01 02:33:13;;;;;;;4.43;2.92;;;13.80;98.50;;;;;;4800496;29;20217;-75
2023/06/01 02:35:39;;;;;;;4.88;3.45;;;13.90;98.50;;;;;;4795231;29;20260;-74
2023/06/01 02:38:05;;;;;;;3.47;3.17;;;13.90;98.50;;;;;;4798563;29;20189;-75
2023/06/01 02:40:30;;;;;;;3.35;3.05;;;14.00;98.50;;;;;;4798363;29;20663;-74
2023/06/01 02:42:56;;;;;;;2.53;2.42;;;14.00;98.50;;;;;;4801653;29;20188;-74
2023/06/01 02:45:22;;;;;;;3.75;2.80;;;14.10;98.50;;;;;;4802678;29;20231;-74
2023/06/01 02:47:47;;;;;;;3.53;3.20;;;14.20;98.50;;;;;;4797611;29;20706;-75
2023/06/01 02:50:13;;;;;;;4.82;3.15;;;14.20;98.50;;;;;;4803244;29;20205;-74
2023/06/01 02:52:39;;;;;;;2.60;2.40;;;14.30;98.50;;;;;;4794373;29;20224;-75
2023/06/01 02:55:06;;;;;;;2.80;2.58;;;14.30;98.50;;;;;;4795878;29;20196;-75
2023/06/01 02:57:31;;;;;;;3.88;3.33;;;14.30;98.50;;;;;;4797353;29;20189;-75
2023/06/01 02:59:57;;;;;;;4.93;3.38;;;14.30;98.50;;;;;;4796739;29;20276;-74
2023/06/01 03:02:23;;;;;;;2.85;2.65;;;14.40;98.50;;;;;;4800243;29;20620;-74
2023/06/01 03:04:48;;;;;;;4.57;3.28;;;14.40;98.50;;;;;;4805686;29;20268;-75
2023/06/01 03:07:14;;;;;;;3.83;3.38;;;14.40;98.50;;;;;;4795308;29;20196;-74
2023/06/01 03:09:40;;;;;;;4.53;4.05;;;14.40;98.50;;;;;;4799865;29;20223;-75
2023/06/01 03:12:06;;;;;;;4.65;3.85;;;14.20;98.50;;;;;;4803166;29;20256;-75
2023/06/01 03:14:32;;;;;;;3.13;2.92;;;14.20;98.50;;;;;;4796397;29;20242;-74
2023/06/01 03:16:58;;;;;;;3.53;3.17;;;14.10;98.50;;;;;;4799323;29;20189;-75
2023/06/01 03:19:23;;;;;;;13.13;3.22;;;14.20;98.50;;;;;;4803220;29;20198;-75
2023/06/01 03:21:49;;;;;;;2.90;2.70;;;14.00;98.50;;;;;;4799438;29;20186;-74
2023/06/01 03:24:14;;;;;;;3.50;2.97;;;13.70;98.50;;;;;;4814705;29;20192;-75
2023/06/01 03:26:40;;;;;;;5.43;3.15;;;13.80;98.50;;;;;;4799135;29;20217;-75
2023/06/01 03:29:06;;;;;;;3.03;2.75;;;13.80;98.50;;;;;;4798427;29;20748;-75
2023/06/01 03:31:34;;;;;;;2.47;2.35;;;13.60;98.50;;;;;;4796942;29;20208;-75
2023/06/01 03:34:00;;;;;;;2.97;2.78;;;13.50;98.50;;;;;;4800520;29;20276;-74
2023/06/01 03:36:26;;;;;;;2.70;2.60;;;13.50;98.50;;;;;;4794825;29;20211;-74
2023/06/01 03:38:51;;;;;;;3.15;2.95;;;13.50;98.50;;;;;;4793755;29;20192;-75
2023/06/01 03:41:17;;;;;;;2.95;2.75;;;13.60;98.50;;;;;;4795377;29;20196;-74
2023/06/01 03:43:43;;;;;;;4.38;3.58;;;13.60;98.50;;;;;;4803726;29;20215;-74
2023/06/01 03:46:08;;;;;;;5.30;2.38;;;13.60;98.50;;;;;;4795751;29;20743;-74
2023/06/01 03:48:34;;;;;;;7.72;3.60;;;13.60;98.50;;;;;;4802728;29;20687;-75
2023/06/01 03:51:00;;;;;;;3.83;3.28;;;13.70;98.50;;;;;;4793652;29;20790;-75
2023/06/01 03:53:25;;;;;;;6.05;3.72;;;13.80;98.50;;;;;;4799244;29;20570;-74
2023/06/01 03:55:52;;;;;;;3.45;3.13;;;13.80;98.50;;;;;;4800355;29;20879;-75
2023/06/01 03:58:19;;;;;;;4.88;3.78;;;13.90;98.50;;;;;;4800230;29;20667;-73
2023/06/01 04:00:46;;;;;;;4.38;3.58;;;14.00;98.50;;;;;;4799696;29;20185;-75
2023/06/01 04:03:13;;;;;;;4.63;3.72;;;13.90;98.50;;;;;;4791817;29;20197;-75
2023/06/01 04:05:39;;;;;;;4.40;3.95;;;13.90;98.50;;;;;;4799970;29;20223;-76
2023/06/01 04:08:04;;;;;;;5.47;3.47;;;14.00;98.50;;;;;;4797896;29;20185;-75
2023/06/01 04:10:30;;;;;;;5.05;3.72;;;14.10;98.50;;;;;;4796323;29;20181;-74
2023/06/01 04:12:56;;;;;;;5.95;3.67;;;14.10;98.50;;;;;;4796893;29;20275;-74
2023/06/01 04:15:22;;;;;;;4.07;3.67;;;14.10;98.50;;;;;;4797350;29;20204;-74
2023/06/01 04:17:48;;;;;;;6.28;4.57;;;14.00;98.50;;;;;;4796332;29;20564;-75
2023/06/01 04:20:16;;;;;;;5.18;3.63;;;14.10;98.50;;;;;;4800958;29;20195;-75
2023/06/01 04:22:42;;;;;;;3.80;3.50;;;14.00;98.50;;;;;;4804067;29;20180;-74
2023/06/01 04:25:11;;;;;;;4.47;3.42;;;14.10;98.50;;;;;;4800565;29;20212;-74
2023/06/01 04:29:11;;;;;;;3.33;3.10;;;14.10;98.50;;;;;;5047852;28;20574;-74
2023/06/01 04:31:39;;;;;;;3.97;3.65;;;14.10;98.50;;;;;;5026547;28;20246;-74
2023/06/01 04:34:05;;;;;;;4.28;3.10;;;14.20;98.50;;;;;;5017724;28;20288;-75
2023/06/01 04:36:33;;;;;;;3.75;3.47;;;14.30;98.50;;;;;;5024807;28;20234;-74
2023/06/01 04:38:59;;;;;;;3.00;2.80;;;14.30;98.50;;;;;;5030047;28;20184;-74
2023/06/01 04:41:25;;;;;;;3.25;3.05;;;14.20;98.50;;;;;;5031763;28;20176;-74
2023/06/01 04:43:53;;;;;;;3.90;3.60;;;14.30;98.50;;;;;;5016965;28;20203;-75
2023/06/01 04:46:23;;;;;;;3.88;3.13;;;14.30;98.50;;;;;;5029764;28;20194;-75
2023/06/01 04:48:51;;;;;;;3.55;3.25;;;14.20;98.50;;;;;;5031605;28;20244;-74
2023/06/01 04:51:19;;;;;;;4.22;3.58;;;14.10;98.50;;;;;;5023657;28;21252;-74
2023/06/01 04:53:49;;;;;;;3.70;3.40;;;14.00;98.50;;;;;;5026873;28;20181;-74
2023/06/01 04:56:16;;;;;;;3.75;3.35;;;13.90;98.50;;;;;;5023676;28;20241;-75
2023/06/01 04:58:42;;;;;;;4.15;3.65;;;13.90;98.50;;;;;;5028611;28;20697;-74
2023/06/01 05:01:07;;;;;;;4.38;3.97;;;13.90;98.50;;;;;;5027032;28;20172;-74
2023/06/01 05:03:33;;;;;;;5.68;4.10;;;13.80;98.50;;;;;;5029338;28;20542;-75
2023/06/01 05:05:59;;;;;;;4.78;4.28;;;13.80;98.50;;;;;;5022957;28;20203;-76
2023/06/01 05:08:24;;;;;;;4.95;4.35;;;13.80;98.50;;;;;;5018003;28;20792;-74
2023/06/01 05:10:50;;;;;;;4.22;3.92;;;13.90;98.50;;;;;;5021143;28;20697;-74
2023/06/01 05:13:16;;;;;;;3.97;3.58;;;13.90;98.50;;;;;;5023423;28;20175;-75
2023/06/01 05:15:41;;;;;;;4.32;4.00;;;13.90;98.50;;;;;;5023450;28;20191;-75
2023/06/01 05:18:07;;;;;;;4.05;3.67;;;14.00;98.50;;;;;;5023506;28;20185;-74
2023/06/01 05:20:33;;;;;;;3.67;3.40;;;14.10;98.50;;;;;;5028379;28;20177;-77
2023/06/01 05:22:58;;;;;;;3.75;3.42;;;14.30;98.50;;;;;;5022422;28;20184;-73
2023/06/01 05:25:24;;;;;;;3.83;3.42;;;14.40;98.50;;;;;;5026145;28;20180;-74
2023/06/01 05:27:50;;;;;;;5.85;4.07;;;14.50;98.50;;;;;;5026559;28;20247;-74
2023/06/01 05:30:16;;;;;;;4.50;3.90;;;14.60;98.50;;;;;;5028178;28;20556;-73
2023/06/01 05:32:41;;;;;;;4.43;3.78;;;14.80;98.50;;;;;;5027367;28;20314;-75
2023/06/01 05:35:07;;;;;;;4.85;4.05;;;14.90;98.50;;;;;;5032119;28;20180;-75
2023/06/01 05:37:33;;;;;;;4.40;4.00;;;15.10;98.50;;;;;;5009849;28;20187;-76
2023/06/01 05:39:59;;;;;;;5.25;3.97;;;15.20;98.50;;;;;;5017336;28;20615;-75
2023/06/01 05:42:24;;;;;;;4.55;4.13;;;15.30;98.50;;;;;;5016277;28;20252;-75
2023/06/01 05:44:50;;;;;;;4.70;4.30;;;15.50;98.50;;;;;;5012935;28;20177;-77
2023/06/01 05:47:15;;;;;;;4.70;4.30;;;15.60;98.50;;;;;;5007450;28;20216;-74
2023/06/01 05:49:41;;;;;;;5.65;4.70;;;15.70;98.50;;;;;;5012868;28;20658;-74
2023/06/01 05:52:07;;;;;;;5.00;4.40;;;15.80;98.50;;;;;;5013706;28;20248;-75
2023/06/01 05:54:32;;;;;;;6.25;4.10;;;15.90;98.50;;;;;;5014419;28;20578;-75
2023/06/01 05:56:58;;;;;;;5.15;3.92;;;16.00;98.50;;;;;;5013821;28;21042;-74
2023/06/01 05:59:24;;;;;;;5.07;3.80;;;16.10;98.50;;;;;;5014575;28;20203;-75
2023/06/01 06:01:50;;;;;;;6.38;4.10;;;16.20;98.50;;;;;;5012081;28;20184;-74
2023/06/01 06:04:16;;;;;;;6.53;4.50;;;16.30;98.50;;;;;;5013223;28;20177;-74
2023/06/01 06:06:41;;;;;;;4.07;3.70;;;16.50;98.50;;;;;;5013530;28;20863;-74
2023/06/01 06:09:07;;;;;;;5.72;4.65;;;16.60;98.50;;;;;;5013264;28;20217;-75
2023/06/01 06:11:33;;;;;;;5.63;5.03;;;16.70;98.50;;;;;;5013466;28;20641;-75
2023/06/01 06:13:58;;;;;;;5.10;4.63;;;16.90;98.50;;;;;;5014207;28;20184;-74
2023/06/01 06:16:24;;;;;;;5.97;5.38;;;17.00;98.50;;;;;;5011966;28;20219;-75
2023/06/01 06:18:50;;;;;;;11.65;6.30;;;17.10;98.50;;;;;;5011041;28;20193;-75
2023/06/01 06:21:16;;;;;;;8.02;5.80;;;17.20;97.20;;;;;;5044663;28;20204;-75
2023/06/01 06:23:42;;;;;;;9.82;5.88;;;17.20;96.10;;;;;;5012460;28;20192;-75
2023/06/01 06:26:08;;;;;;;9.13;6.18;;;17.20;95.30;;;;;;5011689;28;20204;-76
2023/06/01 06:28:34;;;;;;;8.75;6.22;;;17.20;95.30;;;;;;5016216;28;20576;-76
2023/06/01 06:30:59;;;;;;;6.88;6.00;;;17.30;95.40;;;;;;5011585;28;20267;-76
2023/06/01 06:33:25;;;;;;;8.65;5.93;;;17.30;94.50;;;;;;5020634;28;20610;-76
2023/06/01 06:35:51;;;;;;;6.15;5.55;;;17.30;94.60;;;;;;5018038;28;20948;-76
2023/06/01 06:38:17;;;;;;;9.55;6.05;;;17.30;94.90;;;;;;5019399;28;20222;-76
2023/06/01 06:40:43;;;;;;;6.72;5.57;;;17.30;94.70;;;;;;5017198;28;20724;-76
2023/06/01 06:43:09;;;;;;;8.35;5.82;;;17.30;94.20;;;;;;5009336;28;20246;-77
2023/06/01 06:45:35;;;;;;;8.18;6.05;;;17.30;94.80;;;;;;5014946;28;20165;-76
2023/06/01 06:48:01;;;;;;;9.70;6.97;;;17.30;94.70;;;;;;5018101;28;20223;-76
2023/06/01 06:50:26;;;;;;;13.35;7.18;;;17.20;94.20;;;;;;5006733;28;20181;-76
2023/06/01 06:52:52;;;;;;;7.95;5.80;;;17.20;94.40;;;;;;5005784;28;21014;-77
2023/06/01 06:55:18;;;;;;;8.75;5.55;;;17.20;94.90;;;;;;5006582;28;20675;-76
2023/06/01 06:57:44;;;;;;;7.57;6.10;;;17.20;95.50;;;;;;5021656;28;20188;-77
2023/06/01 07:00:14;;;;;;;7.93;5.72;;;17.10;95.70;;;;;;5010161;28;20185;-76
2023/06/01 07:02:41;;;;;;;10.15;6.53;;;17.10;95.30;;;;;;5021574;28;20606;-77
2023/06/01 07:05:08;;;;;;;6.32;5.55;;;17.00;95.20;;;;;;5006779;28;20268;-77
2023/06/01 07:07:34;;;;;;;12.73;6.47;;;17.00;96.30;;;;;;5009311;28;20232;-77
2023/06/01 07:09:59;;;;;;;11.65;6.35;;;17.00;95.90;;;;;;5006516;28;20283;-77
2023/06/01 07:12:25;;;;;;;7.82;5.95;;;16.90;95.10;;;;;;5005491;28;20281;-77
2023/06/01 07:14:51;;;;;;;7.78;6.13;;;16.90;95.70;;;;;;5007730;28;20866;-77
2023/06/01 07:17:16;;;;;;;8.07;6.07;;;16.90;94.60;;;;;;5010835;28;20181;-77
2023/06/01 07:19:42;;;;;;;8.23;6.05;;;17.00;94.90;;;;;;5006461;28;20181;-77
2023/06/01 07:22:08;;;;;;;6.88;5.68;;;17.10;95.60;;;;;;5007975;28;20677;-76
2023/06/01 07:24:33;;;;;;;8.00;5.53;;;17.10;95.40;;;;;;5005783;28;20188;-77
2023/06/01 07:26:59;;;;;;;6.97;5.63;;;17.10;95.10;;;;;;5008818;28;20183;-76
2023/06/01 07:29:26;;;;;;;7.72;5.53;;;17.30;95.50;;;;;;5011379;28;20188;-77
2023/06/01 07:31:52;;;;;;;5.40;4.95;;;17.40;94.80;;;;;;5010161;28;20192;-75
2023/06/01 07:34:18;;;;;;;6.80;5.47;;;17.50;95.10;;;;;;5009015;28;20181;-76
2023/06/01 07:36:45;;;;;;;7.68;5.55;;;17.50;95.50;;;;;;5020105;28;20181;-76
2023/06/01 07:39:11;;;;;;;8.48;5.93;;;17.60;94.80;;;;;;5013105;28;20547;-76
2023/06/01 07:41:39;;;;;;;6.00;5.18;;;17.70;95.10;;;;;;5011476;28;20196;-77
2023/06/01 07:44:05;;;;;;;5.63;4.82;;;17.80;95.10;;;;;;5008318;28;20236;-76
2023/06/01 07:46:31;;;;;;;5.60;5.07;;;18.00;94.90;;;;;;5041673;28;20315;-76
2023/06/01 07:48:57;;;;;;;4.75;4.32;;;18.10;94.20;;;;;;5007570;28;20296;-76
2023/06/01 07:51:23;;;;;;;9.68;6.30;;;18.20;94.20;;;;;;5007181;28;20181;-76
2023/06/01 07:53:49;;;;;;;5.95;5.05;;;18.40;92.70;;;;;;5005709;28;20173;-76
2023/06/01 07:56:14;;;;;;;5.75;4.88;;;18.60;93.00;;;;;;5008728;28;20923;-76
2023/06/01 07:58:40;;;;;;;6.85;4.53;;;18.70;93.40;;;;;;5009814;28;20172;-77
2023/06/01 08:01:06;;;;;;;5.80;4.95;;;18.90;93.40;;;;;;5007506;28;20181;-76
2023/06/01 08:03:33;;;;;;;5.85;5.25;;;19.10;91.90;;;;;;5006191;28;20216;-76
2023/06/01 08:06:02;;;;;;;6.88;5.65;;;19.20;91.20;;;;;;5009455;28;20557;-76
2023/06/01 08:08:28;;;;;;;4.72;4.28;;;19.30;90.10;;;;;;5010626;28;20197;-77
2023/06/01 08:10:54;;;;;;;8.77;5.78;;;19.50;89.90;;;;;;5012457;28;20216;-77
2023/06/01 08:13:19;;;;;;;7.13;5.68;;;19.60;89.90;;;;;;5011636;28;20189;-77
2023/06/01 08:15:47;;;;;;;5.13;4.72;;;19.80;89.90;;;;;;5016609;28;20177;-77
2023/06/01 08:18:14;;;;;;;7.57;4.90;;;19.90;89.90;;;;;;5008325;28;20181;-77
2023/06/01 08:20:39;;;;;;;4.63;4.28;;;19.90;90.00;;;;;;5008466;28;20177;-77
2023/06/01 08:23:05;;;;;;;5.68;4.40;;;20.00;90.70;;;;;;5009193;28;20185;-77
2023/06/01 08:25:31;;;;;;;5.55;5.07;;;20.20;90.40;;;;;;5012871;28;20180;-77
2023/06/01 08:27:57;;;;;;;6.82;5.15;;;20.30;90.50;;;;;;5008859;28;20209;-77
2023/06/01 08:30:26;;;;;;;10.18;6.75;;;20.40;90.50;;;;;;5039211;28;20200;-77
2023/06/01 08:32:51;;;;;;;5.75;5.28;;;20.50;87.40;;;;;;5009261;28;20180;-77
2023/06/01 08:35:18;;;;;;;7.63;6.00;;;20.60;87.10;;;;;;5008748;28;20858;-76
2023/06/01 08:37:44;;;;;;;5.65;5.13;;;20.70;87.20;;;;;;5009709;28;20590;-77
2023/06/01 08:40:10;;;;;;;6.68;6.03;;;20.80;87.20;;;;;;5015878;28;20186;-77
2023/06/01 08:42:45;;;;;;;6.53;5.53;;;20.90;87.10;;;;;;5009433;28;20272;-78
2023/06/01 08:45:13;;;;;;;8.10;6.10;;;21.00;86.80;;;;;;5005243;28;20849;-77
2023/06/01 08:47:40;;;;;;;7.28;5.22;;;21.20;85.70;;;;;;5040115;28;20192;-77
2023/06/01 08:50:08;;;;;;;5.88;5.38;;;21.30;85.60;;;;;;5013743;28;20184;-77
2023/06/01 08:52:36;;;;;;;5.28;4.78;;;21.40;86.10;;;;;;5003740;28;20189;-77
2023/06/01 08:55:03;;;;;;;9.23;6.30;;;21.50;85.90;;;;;;5039109;28;20185;-77
2023/06/01 08:57:29;;;;;;;5.93;5.35;;;21.70;86.40;;;;;;5009765;28;20188;-77
2023/06/01 08:59:56;;;;;;;8.75;5.20;;;21.80;85.30;;;;;;5010052;28;20184;-77
2023/06/01 09:02:23;;;;;;;5.75;5.22;;;22.00;85.30;;;;;;5007676;28;20208;-77
2023/06/01 09:04:49;;;;;;;10.10;5.72;;;22.10;85.00;;;;;;5010197;28;20650;-77
2023/06/01 09:07:15;;;;;;;6.07;5.43;;;22.20;82.30;;;;;;5006363;28;20205;-77
2023/06/01 09:09:40;;;;;;;5.13;4.70;;;22.30;81.80;;;;;;5006300;28;20619;-76
2023/06/01 09:12:27;;;;;;;4.95;4.60;;;22.40;81.90;;;;;;5005810;28;20177;-76
2023/06/01 09:15:12;;;;;;;4.85;4.45;;;22.50;82.90;;;;;;5040956;28;20192;-77
2023/06/01 09:17:39;;;;;;;5.10;4.60;;;22.60;81.10;;;;;;5010761;28;20180;-77
2023/06/01 09:20:06;;;;;;;4.10;3.75;;;22.60;77.30;;;;;;5013640;28;20193;-77
2023/06/01 09:22:45;;;;;;;4.28;3.90;;;22.70;78.20;;;;;;5012816;28;20185;-77
2023/06/01 09:25:13;;;;;;;4.10;3.78;;;22.70;78.50;;;;;;5012028;28;20670;-77
2023/06/01 09:27:45;;;;;;;4.60;4.03;;;22.80;80.80;;;;;;5044198;28;20223;-77
2023/06/01 09:30:11;;;;;;;6.45;4.03;;;22.90;81.30;;;;;;5042743;28;20220;-77
2023/06/01 09:32:37;;;;;;;5.05;4.68;;;23.00;81.70;;;;;;5011485;28;20662;-77
2023/06/01 09:35:07;;;;;;;5.20;3.78;;;23.20;82.10;;;;;;5010243;28;20177;-77
2023/06/01 09:37:32;;;;;;;4.25;3.97;;;23.40;81.70;;;;;;5042840;28;20566;-77
2023/06/01 09:39:58;;;;;;;3.92;3.60;;;23.50;80.70;;;;;;5009251;28;20176;-77
2023/06/01 09:42:34;;;;;;;5.18;3.33;;;23.70;80.50;;;;;;5016352;28;20654;-76
2023/06/01 09:45:21;;;;;;;3.75;3.55;;;23.80;78.40;;;;;;5010802;28;20560;-77
2023/06/01 09:47:50;;;;;;;3.38;3.22;;;23.90;73.00;;;;;;5003568;28;20197;-78
2023/06/01 09:50:51;;;;;;;3.45;3.28;;;23.90;73.90;;;;;;5008897;28;20181;-78
2023/06/01 09:53:17;;;;;;;3.33;3.03;;;24.00;70.20;;;;;;5010849;28;20206;-77
2023/06/01 09:56:02;;;;;;;3.67;3.38;;;23.90;71.10;;;;;;5027332;28;20488;-77
2023/06/01 09:58:28;;;;;;;6.32;3.03;;;23.90;73.30;;;;;;5008809;28;20264;-77
2023/06/01 10:00:55;;;;;;;5.53;3.17;;;24.00;75.90;;;;;;5012257;28;20650;-77
2023/06/01 10:03:22;;;;;;;3.55;3.28;;;24.10;73.20;;;;;;5005345;28;20189;-77
2023/06/01 10:05:49;;;;;;;3.70;3.35;;;24.20;72.00;;;;;;5010385;28;20231;-78
2023/06/01 10:08:17;;;;;;;4.75;4.35;;;24.30;70.70;;;;;;5010564;28;20216;-77
2023/06/01 10:10:45;;;;;;;6.10;3.75;;;24.30;71.90;;;;;;5011112;28;20215;-77
2023/06/01 10:13:12;;;;;;;3.92;3.58;;;24.20;73.30;;;;;;5012113;28;20618;-78
2023/06/01 10:15:37;;;;;;;3.70;3.40;;;24.10;72.20;;;;;;5010361;28;20193;-78
2023/06/01 10:18:07;;;;;;;3.75;3.47;;;24.10;72.20;;;;;;5013085;28;20221;-78
2023/06/01 10:20:35;;;;;;;3.85;3.55;;;24.00;69.70;;;;;;5038270;28;20184;-78
2023/06/01 10:23:01;;;;;;;3.03;2.92;;;24.00;69.50;;;;;;5010441;28;20192;-78
2023/06/01 10:25:33;;;;;;;3.08;2.78;;;24.20;68.80;;;;;;5011905;28;20185;-78
2023/06/01 10:28:04;;;;;;;7.15;2.47;;;24.40;69.40;;;;;;5010353;28;20651;-78
2023/06/01 10:30:29;;;;;;;2.58;2.25;;;24.60;65.00;;;;;;5010750;28;20215;-78
2023/06/01 10:32:55;;;;;;;2.35;2.25;;;24.60;64.60;;;;;;5010167;28;20185;-78
2023/06/01 10:35:31;;;;;;;2.20;2.10;;;24.40;65.90;;;;;;5011731;28;20177;-78
2023/06/01 10:38:06;;;;;;;4.03;1.92;;;24.30;65.20;;;;;;5042825;28;20177;-78
2023/06/01 10:40:39;;;;;;;2.45;2.28;;;24.40;66.10;;;;;;5005301;28;20265;-78
2023/06/01 10:43:05;;;;;;;3.00;2.80;;;24.40;65.70;;;;;;5011275;28;20341;-78
2023/06/01 10:45:34;;;;;;;2.80;2.70;;;24.50;66.00;;;;;;5012295;28;20188;-78
2023/06/01 10:48:04;;;;;;;3.13;3.00;;;24.40;67.30;;;;;;5011676;28;20208;-78
2023/06/01 10:50:30;;;;;;;2.78;2.67;;;24.30;67.20;;;;;;5010482;28;20181;-78
2023/06/01 10:53:16;;;;;;;2.45;2.35;;;24.10;65.80;;;;;;5011442;28;20161;-78
2023/06/01 10:55:42;;;;;;;4.40;3.47;;;24.10;67.50;;;;;;5010522;28;20177;-78
2023/06/01 10:58:22;;;;;;;3.63;3.33;;;24.10;67.50;;;;;;5011576;28;20684;-77
2023/06/01 11:00:48;;;;;;;3.20;3.08;;;23.90;67.90;;;;;;5001705;28;20173;-77
2023/06/01 11:03:14;;;;;;;3.28;3.10;;;24.00;68.50;;;;;;5009738;28;20561;-77
2023/06/01 11:05:51;;;;;;;3.70;3.53;;;24.10;69.30;;;;;;5011309;28;20255;-78
2023/06/01 11:08:20;;;;;;;2.80;2.70;;;24.50;67.90;;;;;;5011186;28;20566;-77
2023/06/01 11:10:52;;;;;;;2.83;2.63;;;24.70;67.10;;;;;;5012225;28;20252;-77
2023/06/01 11:13:19;;;;;;;2.63;2.53;;;24.80;63.60;;;;;;5009830;28;20562;-77
2023/06/01 11:16:04;;;;;;;2.58;2.47;;;25.10;65.80;;;;;;5013380;28;20187;-77
2023/06/01 11:18:59;;;;;;;2.00;1.90;;;25.10;64.70;;;;;;5007968;28;20184;-77
2023/06/01 11:21:27;;;;;;;1.92;1.92;;;25.10;62.30;;;;;;5012513;28;20197;-78
2023/06/01 11:23:55;;;;;;;2.55;2.35;;;24.90;61.00;;;;;;5010883;28;20185;-78
2023/06/01 11:26:30;;;;;;;2.55;2.35;;;24.80;62.60;;;;;;5006254;28;20276;-78
2023/06/01 11:29:11;;;;;;;2.15;2.05;;;24.80;65.10;;;;;;5002964;28;20200;-78
2023/06/01 11:31:43;;;;;;;1.83;1.73;;;24.50;64.60;;;;;;5005150;28;20223;-78
2023/06/01 11:34:10;;;;;;;1.77;1.77;;;24.10;65.50;;;;;;5009577;28;20192;-78
2023/06/01 11:36:48;;;;;;;2.35;2.25;;;23.90;65.30;;;;;;5007679;28;20623;-78
2023/06/01 11:39:24;;;;;;;2.00;1.90;;;23.50;65.40;;;;;;5008295;28;20165;-78
2023/06/01 11:42:06;;;;;;;1.50;1.50;;;23.00;65.80;;;;;;5010714;28;20189;-78
2023/06/01 11:44:49;;;;;;;1.67;1.67;;;22.80;67.00;;;;;;5002402;28;20172;-78
2023/06/01 11:47:14;;;;;;;2.15;2.05;;;22.50;68.20;;;;;;5004808;28;20832;-78
2023/06/01 11:49:47;;;;;;;2.50;1.80;;;22.00;67.90;;;;;;5009949;28;20188;-78
2023/06/01 11:52:13;;;;;;;1.60;1.60;;;21.90;69.60;;;;;;5010571;28;20177;-78
2023/06/01 11:54:40;;;;;;;6.10;1.70;;;21.50;70.20;;;;;;5009116;28;20213;-78
2023/06/01 11:57:07;;;;;;;3.63;1.10;;;21.30;71.90;;;;;;5010475;28;20204;-78
2023/06/01 11:59:39;;;;;;;1.58;1.48;;;21.20;73.40;;;;;;5010348;28;20177;-78
2023/06/01 12:02:19;;;;;;;1.70;1.60;;;20.90;75.30;;;;;;5009968;28;20181;-78
2023/06/01 12:04:55;;;;;;;1.40;1.40;;;20.60;75.00;;;;;;5001880;28;20189;-78
2023/06/01 12:07:21;;;;;;;1.33;1.23;;;20.40;76.40;;;;;;5035423;28;20236;-78
2023/06/01 12:09:47;;;;;;;1.52;1.42;;;20.10;77.70;;;;;;5008647;28;20236;-78
2023/06/01 12:12:13;;;;;;;1.55;1.35;;;19.50;79.20;;;;;;5011463;28;20185;-78
2023/06/01 12:14:40;;;;;;;1.33;1.33;;;18.90;80.50;;;;;;5010191;28;20173;-78
2023/06/01 12:17:06;;;;;;;1.45;1.45;;;18.60;82.20;;;;;;5010407;28;20188;-78
2023/06/01 12:19:32;;;;;;;2.92;2.17;;;18.40;84.20;;;;;;5011214;28;20177;-78
2023/06/01 12:21:58;;;;;;;1.80;1.65;;;18.20;84.70;;;;;;5007180;28;20170;-78
2023/06/01 12:24:32;;;;;;;2.80;1.73;;;18.20;84.50;;;;;;5005259;28;20189;-78
2023/06/01 12:27:02;;;;;;;3.65;1.65;;;18.20;85.10;;;;;;5011148;28;20226;-78
2023/06/01 12:29:58;;;;;;;2.15;1.50;;;18.20;85.90;;;;;;5010247;28;20215;-78
2023/06/01 12:32:37;;;;;;;1.30;1.25;;;18.10;88.60;;;;;;5009346;28;20192;-78
2023/06/01 12:35:03;;;;;;;1.98;1.73;;;18.10;88.60;;;;;;5012290;28;20214;-78
2023/06/01 12:37:29;;;;;;;1.90;1.73;;;18.20;86.60;;;;;;5009560;28;20189;-79
2023/06/01 12:39:56;;;;;;;1.92;1.83;;;18.30;86.90;;;;;;5007827;28;20557;-79
2023/06/01 12:42:36;;;;;;;2.40;2.30;;;18.40;88.00;;;;;;5006084;28;20578;-78
2023/06/01 12:45:02;;;;;;;2.17;2.08;;;18.50;88.00;;;;;;5006195;28;20257;-79
2023/06/01 12:47:35;;;;;;;1.90;1.83;;;18.50;87.70;;;;;;5004762;28;20809;-79
2023/06/01 12:50:06;;;;;;;1.92;1.83;;;18.50;85.10;;;;;;5009061;28;20681;-79
2023/06/01 12:52:32;;;;;;;1.50;1.40;;;18.60;84.70;;;;;;5013001;28;20172;-79